sensor_id;sensor_type;location;lat;lon;timestamp;temperature;humidity
71563;DHT22;59391;52.504;13.438;2023-03-14T00:00:03;15.40;59.30
71563;DHT22;59391;52.504;13.438;2023-03-14T00:02:31;15.40;59.90
71563;DHT22;59391;52.504;13.438;2023-03-14T00:04:56;15.40;59.50
71563;DHT22;59391;52.504;13.438;2023-03-14T00:07:22;15.30;59.40
71563;DHT22;59391;52.504;13.438;2023-03-14T00:09:50;15.30;59.90
71563;DHT22;59391;52.504;13.438;2023-03-14T00:12:16;15.30;59.70
71563;DHT22;59391;52.504;13.438;2023-03-14T00:14:42;15.20;60.20
71563;DHT22;59391;52.504;13.438;2023-03-14T00:17:09;15.20;59.80
71563;DHT22;59391;52.504;13.438;2023-03-14T00:19:34;15.10;60.10
71563;DHT22;59391;52.504;13.438;2023-03-14T00:22:00;15.10;60.40
71563;DHT22;59391;52.504;13.438;2023-03-14T00:24:25;15.10;60.40
71563;DHT22;59391;52.504;13.438;2023-03-14T00:26:51;15.00;60.50
71563;DHT22;59391;52.504;13.438;2023-03-14T00:29:17;15.00;60.40
71563;DHT22;59391;52.504;13.438;2023-03-14T00:31:42;14.90;61.20
71563;DHT22;59391;52.504;13.438;2023-03-14T00:34:08;14.90;61.10
71563;DHT22;59391;52.504;13.438;2023-03-14T00:36:33;14.90;61.20
71563;DHT22;59391;52.504;13.438;2023-03-14T00:38:59;14.80;61.40
71563;DHT22;59391;52.504;13.438;2023-03-14T00:41:25;14.80;61.20
71563;DHT22;59391;52.504;13.438;2023-03-14T00:43:51;14.70;61.60
71563;DHT22;59391;52.504;13.438;2023-03-14T00:46:17;14.70;61.90
71563;DHT22;59391;52.504;13.438;2023-03-14T00:48:47;14.60;61.90
71563;DHT22;59391;52.504;13.438;2023-03-14T00:51:13;14.60;62.20
71563;DHT22;59391;52.504;13.438;2023-03-14T00:53:40;14.60;62.40
71563;DHT22;59391;52.504;13.438;2023-03-14T00:56:09;14.60;62.50
71563;DHT22;59391;52.504;13.438;2023-03-14T00:58:36;14.50;62.70
71563;DHT22;59391;52.504;13.438;2023-03-14T01:01:09;14.50;63.20
71563;DHT22;59391;52.504;13.438;2023-03-14T01:03:38;14.50;63.10
71563;DHT22;59391;52.504;13.438;2023-03-14T01:06:15;14.40;63.40
71563;DHT22;59391;52.504;13.438;2023-03-14T01:08:44;14.40;63.40
71563;DHT22;59391;52.504;13.438;2023-03-14T01:11:12;14.40;63.60
71563;DHT22;59391;52.504;13.438;2023-03-14T01:14:00;14.40;63.80
71563;DHT22;59391;52.504;13.438;2023-03-14T01:16:28;14.30;63.70
71563;DHT22;59391;52.504;13.438;2023-03-14T01:18:55;14.30;63.80
71563;DHT22;59391;52.504;13.438;2023-03-14T01:21:23;14.20;64.00
71563;DHT22;59391;52.504;13.438;2023-03-14T01:23:51;14.20;64.00
71563;DHT22;59391;52.504;13.438;2023-03-14T01:26:20;14.20;64.20
71563;DHT22;59391;52.504;13.438;2023-03-14T01:28:48;14.20;64.30
71563;DHT22;59391;52.504;13.438;2023-03-14T01:31:16;14.10;64.40
71563;DHT22;59391;52.504;13.438;2023-03-14T01:33:41;14.10;64.70
71563;DHT22;59391;52.504;13.438;2023-03-14T01:36:09;14.00;64.60
71563;DHT22;59391;52.504;13.438;2023-03-14T01:38:36;14.10;64.70
71563;DHT22;59391;52.504;13.438;2023-03-14T01:41:03;14.00;64.70
71563;DHT22;59391;52.504;13.438;2023-03-14T01:43:30;14.00;64.90
71563;DHT22;59391;52.504;13.438;2023-03-14T01:51:51;14.00;64.90
71563;DHT22;59391;52.504;13.438;2023-03-14T01:54:36;14.00;64.80
71563;DHT22;59391;52.504;13.438;2023-03-14T01:57:06;14.00;64.90
71563;DHT22;59391;52.504;13.438;2023-03-14T01:59:33;14.00;65.20
71563;DHT22;59391;52.504;13.438;2023-03-14T02:02:00;14.00;64.90
71563;DHT22;59391;52.504;13.438;2023-03-14T02:04:33;14.00;64.90
71563;DHT22;59391;52.504;13.438;2023-03-14T02:07:08;14.00;64.90
71563;DHT22;59391;52.504;13.438;2023-03-14T02:09:40;14.00;64.90
71563;DHT22;59391;52.504;13.438;2023-03-14T02:12:08;14.00;64.80
71563;DHT22;59391;52.504;13.438;2023-03-14T02:14:37;14.00;64.80
71563;DHT22;59391;52.504;13.438;2023-03-14T02:17:05;14.00;64.80
71563;DHT22;59391;52.504;13.438;2023-03-14T02:19:44;14.00;64.50
71563;DHT22;59391;52.504;13.438;2023-03-14T02:22:19;13.90;64.90
71563;DHT22;59391;52.504;13.438;2023-03-14T02:25:04;13.90;64.80
71563;DHT22;59391;52.504;13.438;2023-03-14T02:27:36;13.90;64.80
71563;DHT22;59391;52.504;13.438;2023-03-14T02:30:16;13.90;64.90
71563;DHT22;59391;52.504;13.438;2023-03-14T02:32:47;13.90;65.10
71563;DHT22;59391;52.504;13.438;2023-03-14T02:35:23;13.90;65.10
71563;DHT22;59391;52.504;13.438;2023-03-14T02:37:59;13.90;64.80
71563;DHT22;59391;52.504;13.438;2023-03-14T02:40:32;13.90;64.80
71563;DHT22;59391;52.504;13.438;2023-03-14T02:42:57;13.90;64.80
71563;DHT22;59391;52.504;13.438;2023-03-14T02:48:11;13.80;64.80
71563;DHT22;59391;52.504;13.438;2023-03-14T02:50:47;13.80;64.80
71563;DHT22;59391;52.504;13.438;2023-03-14T02:53:17;13.80;64.60
71563;DHT22;59391;52.504;13.438;2023-03-14T02:55:47;13.80;64.90
71563;DHT22;59391;52.504;13.438;2023-03-14T02:58:13;13.80;65.00
71563;DHT22;59391;52.504;13.438;2023-03-14T03:00:40;13.80;64.50
71563;DHT22;59391;52.504;13.438;2023-03-14T03:03:05;13.80;64.90
71563;DHT22;59391;52.504;13.438;2023-03-14T03:05:31;13.80;64.70
71563;DHT22;59391;52.504;13.438;2023-03-14T03:07:57;13.80;64.60
71563;DHT22;59391;52.504;13.438;2023-03-14T03:10:23;13.80;64.40
71563;DHT22;59391;52.504;13.438;2023-03-14T03:12:49;13.80;64.50
71563;DHT22;59391;52.504;13.438;2023-03-14T03:15:15;13.80;64.60
71563;DHT22;59391;52.504;13.438;2023-03-14T03:17:40;13.80;64.50
71563;DHT22;59391;52.504;13.438;2023-03-14T03:20:06;13.80;64.30
71563;DHT22;59391;52.504;13.438;2023-03-14T03:22:35;13.70;64.30
71563;DHT22;59391;52.504;13.438;2023-03-14T03:25:02;13.80;64.70
71563;DHT22;59391;52.504;13.438;2023-03-14T03:27:31;13.80;64.70
71563;DHT22;59391;52.504;13.438;2023-03-14T03:29:57;13.70;64.30
71563;DHT22;59391;52.504;13.438;2023-03-14T03:32:23;13.70;64.40
71563;DHT22;59391;52.504;13.438;2023-03-14T03:34:49;13.70;64.50
71563;DHT22;59391;52.504;13.438;2023-03-14T03:37:14;13.70;64.20
71563;DHT22;59391;52.504;13.438;2023-03-14T03:39:40;13.70;64.40
71563;DHT22;59391;52.504;13.438;2023-03-14T03:42:06;13.60;64.30
71563;DHT22;59391;52.504;13.438;2023-03-14T03:44:31;13.60;64.60
71563;DHT22;59391;52.504;13.438;2023-03-14T03:46:57;13.60;64.60
71563;DHT22;59391;52.504;13.438;2023-03-14T03:49:23;13.60;64.40
71563;DHT22;59391;52.504;13.438;2023-03-14T03:51:48;13.60;64.70
71563;DHT22;59391;52.504;13.438;2023-03-14T03:54:14;13.60;64.60
71563;DHT22;59391;52.504;13.438;2023-03-14T03:56:39;13.50;64.30
71563;DHT22;59391;52.504;13.438;2023-03-14T03:59:05;13.50;64.50
71563;DHT22;59391;52.504;13.438;2023-03-14T04:01:31;13.50;64.50
71563;DHT22;59391;52.504;13.438;2023-03-14T04:03:56;13.50;64.50
71563;DHT22;59391;52.504;13.438;2023-03-14T04:06:22;13.50;64.50
71563;DHT22;59391;52.504;13.438;2023-03-14T04:08:47;13.40;64.60
71563;DHT22;59391;52.504;13.438;2023-03-14T04:11:13;13.40;64.50
71563;DHT22;59391;52.504;13.438;2023-03-14T04:13:39;13.40;64.30
71563;DHT22;59391;52.504;13.438;2023-03-14T04:16:12;13.40;64.50
71563;DHT22;59391;52.504;13.438;2023-03-14T04:18:41;13.40;64.40
71563;DHT22;59391;52.504;13.438;2023-03-14T04:21:07;13.30;64.30
71563;DHT22;59391;52.504;13.438;2023-03-14T04:23:32;13.30;64.50
71563;DHT22;59391;52.504;13.438;2023-03-14T04:25:58;13.40;64.40
71563;DHT22;59391;52.504;13.438;2023-03-14T04:28:24;13.40;64.30
71563;DHT22;59391;52.504;13.438;2023-03-14T04:30:50;13.40;64.20
71563;DHT22;59391;52.504;13.438;2023-03-14T04:33:16;13.40;64.00
71563;DHT22;59391;52.504;13.438;2023-03-14T04:35:45;13.40;63.80
71563;DHT22;59391;52.504;13.438;2023-03-14T04:38:12;13.50;63.70
71563;DHT22;59391;52.504;13.438;2023-03-14T04:40:39;13.40;63.60
71563;DHT22;59391;52.504;13.438;2023-03-14T04:43:06;13.40;63.50
71563;DHT22;59391;52.504;13.438;2023-03-14T04:45:33;13.50;63.40
71563;DHT22;59391;52.504;13.438;2023-03-14T04:47:59;13.50;63.10
71563;DHT22;59391;52.504;13.438;2023-03-14T04:50:24;13.40;63.30
71563;DHT22;59391;52.504;13.438;2023-03-14T04:52:50;13.40;63.40
71563;DHT22;59391;52.504;13.438;2023-03-14T04:55:15;13.40;63.20
71563;DHT22;59391;52.504;13.438;2023-03-14T04:57:41;13.40;63.20
71563;DHT22;59391;52.504;13.438;2023-03-14T05:00:07;13.40;63.10
71563;DHT22;59391;52.504;13.438;2023-03-14T05:02:35;13.40;63.20
71563;DHT22;59391;52.504;13.438;2023-03-14T05:05:00;13.40;62.80
71563;DHT22;59391;52.504;13.438;2023-03-14T05:07:26;13.40;62.90
71563;DHT22;59391;52.504;13.438;2023-03-14T05:09:52;13.40;62.70
71563;DHT22;59391;52.504;13.438;2023-03-14T05:12:19;13.40;62.80
71563;DHT22;59391;52.504;13.438;2023-03-14T05:14:45;13.40;62.70
71563;DHT22;59391;52.504;13.438;2023-03-14T05:17:11;13.40;62.30
71563;DHT22;59391;52.504;13.438;2023-03-14T05:19:39;13.40;62.40
71563;DHT22;59391;52.504;13.438;2023-03-14T05:22:06;13.40;62.60
71563;DHT22;59391;52.504;13.438;2023-03-14T05:24:32;13.40;62.10
71563;DHT22;59391;52.504;13.438;2023-03-14T05:26:58;13.40;62.00
71563;DHT22;59391;52.504;13.438;2023-03-14T05:29:23;13.40;62.00
71563;DHT22;59391;52.504;13.438;2023-03-14T05:31:49;13.40;61.90
71563;DHT22;59391;52.504;13.438;2023-03-14T05:34:15;13.40;61.90
71563;DHT22;59391;52.504;13.438;2023-03-14T05:36:41;13.40;61.90
71563;DHT22;59391;52.504;13.438;2023-03-14T05:39:06;13.40;61.40
71563;DHT22;59391;52.504;13.438;2023-03-14T05:41:32;13.40;61.40
71563;DHT22;59391;52.504;13.438;2023-03-14T05:43:58;13.40;61.20
71563;DHT22;59391;52.504;13.438;2023-03-14T05:46:23;13.40;60.70
71563;DHT22;59391;52.504;13.438;2023-03-14T05:48:49;13.40;60.90
71563;DHT22;59391;52.504;13.438;2023-03-14T05:51:14;13.40;60.90
71563;DHT22;59391;52.504;13.438;2023-03-14T05:53:40;13.40;60.70
71563;DHT22;59391;52.504;13.438;2023-03-14T05:56:06;13.40;60.60
71563;DHT22;59391;52.504;13.438;2023-03-14T05:58:32;13.40;60.50
71563;DHT22;59391;52.504;13.438;2023-03-14T06:01:03;13.40;60.40
71563;DHT22;59391;52.504;13.438;2023-03-14T06:03:31;13.40;60.40
71563;DHT22;59391;52.504;13.438;2023-03-14T06:05:57;13.40;60.30
71563;DHT22;59391;52.504;13.438;2023-03-14T06:08:23;13.40;60.10
71563;DHT22;59391;52.504;13.438;2023-03-14T06:10:48;13.40;59.80
71563;DHT22;59391;52.504;13.438;2023-03-14T06:13:14;13.40;59.80
71563;DHT22;59391;52.504;13.438;2023-03-14T06:15:41;13.40;59.80
71563;DHT22;59391;52.504;13.438;2023-03-14T06:18:07;13.40;59.40
71563;DHT22;59391;52.504;13.438;2023-03-14T06:20:33;13.40;59.50
71563;DHT22;59391;52.504;13.438;2023-03-14T06:23:01;13.50;59.30
71563;DHT22;59391;52.504;13.438;2023-03-14T06:25:26;13.50;59.10
71563;DHT22;59391;52.504;13.438;2023-03-14T06:27:52;13.50;58.60
71563;DHT22;59391;52.504;13.438;2023-03-14T06:30:18;13.50;59.30
71563;DHT22;59391;52.504;13.438;2023-03-14T06:32:44;13.50;59.10
71563;DHT22;59391;52.504;13.438;2023-03-14T06:35:10;13.50;58.50
71563;DHT22;59391;52.504;13.438;2023-03-14T06:37:35;13.50;59.00
71563;DHT22;59391;52.504;13.438;2023-03-14T06:40:01;13.50;58.40
71563;DHT22;59391;52.504;13.438;2023-03-14T06:42:26;13.50;58.80
71563;DHT22;59391;52.504;13.438;2023-03-14T06:44:52;13.50;58.70
71563;DHT22;59391;52.504;13.438;2023-03-14T06:47:17;13.60;58.50
71563;DHT22;59391;52.504;13.438;2023-03-14T06:49:43;13.60;58.40
71563;DHT22;59391;52.504;13.438;2023-03-14T06:52:09;13.60;58.40
71563;DHT22;59391;52.504;13.438;2023-03-14T06:54:34;13.60;58.00
71563;DHT22;59391;52.504;13.438;2023-03-14T06:57:00;13.60;58.00
71563;DHT22;59391;52.504;13.438;2023-03-14T06:59:26;13.60;57.90
71563;DHT22;59391;52.504;13.438;2023-03-14T07:01:51;13.60;58.20
71563;DHT22;59391;52.504;13.438;2023-03-14T07:04:17;13.70;57.90
71563;DHT22;59391;52.504;13.438;2023-03-14T07:06:43;13.80;57.80
71563;DHT22;59391;52.504;13.438;2023-03-14T07:09:13;13.80;57.80
71563;DHT22;59391;52.504;13.438;2023-03-14T07:11:40;13.80;57.50
71563;DHT22;59391;52.504;13.438;2023-03-14T07:14:05;13.80;57.60
71563;DHT22;59391;52.504;13.438;2023-03-14T07:16:31;13.80;57.40
71563;DHT22;59391;52.504;13.438;2023-03-14T07:18:59;13.80;57.60
71563;DHT22;59391;52.504;13.438;2023-03-14T07:21:25;13.90;57.40
71563;DHT22;59391;52.504;13.438;2023-03-14T07:23:51;13.90;57.10
71563;DHT22;59391;52.504;13.438;2023-03-14T07:26:16;13.90;57.20
71563;DHT22;59391;52.504;13.438;2023-03-14T07:28:42;14.00;57.30
71563;DHT22;59391;52.504;13.438;2023-03-14T07:31:08;14.00;57.00
71563;DHT22;59391;52.504;13.438;2023-03-14T07:33:34;14.00;57.00
71563;DHT22;59391;52.504;13.438;2023-03-14T07:36:00;14.00;56.90
71563;DHT22;59391;52.504;13.438;2023-03-14T07:38:26;14.00;56.90
71563;DHT22;59391;52.504;13.438;2023-03-14T07:40:58;14.00;56.70
71563;DHT22;59391;52.504;13.438;2023-03-14T07:43:25;14.00;56.50
71563;DHT22;59391;52.504;13.438;2023-03-14T07:45:51;14.00;56.60
71563;DHT22;59391;52.504;13.438;2023-03-14T07:48:16;14.10;56.90
71563;DHT22;59391;52.504;13.438;2023-03-14T07:50:42;14.00;56.70
71563;DHT22;59391;52.504;13.438;2023-03-14T07:53:08;14.00;57.00
71563;DHT22;59391;52.504;13.438;2023-03-14T07:55:34;14.00;56.90
71563;DHT22;59391;52.504;13.438;2023-03-14T07:58:00;14.00;56.90
71563;DHT22;59391;52.504;13.438;2023-03-14T08:00:25;14.00;56.60
71563;DHT22;59391;52.504;13.438;2023-03-14T08:02:51;14.00;57.00
71563;DHT22;59391;52.504;13.438;2023-03-14T08:05:17;14.10;56.70
71563;DHT22;59391;52.504;13.438;2023-03-14T08:07:42;14.00;56.40
71563;DHT22;59391;52.504;13.438;2023-03-14T08:10:09;14.00;56.90
71563;DHT22;59391;52.504;13.438;2023-03-14T08:12:35;14.00;56.90
71563;DHT22;59391;52.504;13.438;2023-03-14T08:15:00;14.00;57.20
71563;DHT22;59391;52.504;13.438;2023-03-14T08:17:27;14.10;56.80
71563;DHT22;59391;52.504;13.438;2023-03-14T08:19:53;14.10;56.60
71563;DHT22;59391;52.504;13.438;2023-03-14T08:22:18;14.20;56.60
71563;DHT22;59391;52.504;13.438;2023-03-14T08:24:44;14.20;56.70
71563;DHT22;59391;52.504;13.438;2023-03-14T08:27:09;14.30;56.40
71563;DHT22;59391;52.504;13.438;2023-03-14T08:29:35;14.30;56.00
71563;DHT22;59391;52.504;13.438;2023-03-14T08:32:01;14.30;56.10
71563;DHT22;59391;52.504;13.438;2023-03-14T08:34:26;14.30;55.90
71563;DHT22;59391;52.504;13.438;2023-03-14T08:36:52;14.40;56.10
71563;DHT22;59391;52.504;13.438;2023-03-14T08:39:17;14.40;55.90
71563;DHT22;59391;52.504;13.438;2023-03-14T08:41:43;14.40;56.00
71563;DHT22;59391;52.504;13.438;2023-03-14T08:44:10;14.40;56.00
71563;DHT22;59391;52.504;13.438;2023-03-14T08:46:39;14.40;55.30
71563;DHT22;59391;52.504;13.438;2023-03-14T08:49:05;14.40;55.70
71563;DHT22;59391;52.504;13.438;2023-03-14T08:51:30;14.50;55.70
71563;DHT22;59391;52.504;13.438;2023-03-14T08:53:56;14.50;55.90
71563;DHT22;59391;52.504;13.438;2023-03-14T08:56:21;14.50;55.50
71563;DHT22;59391;52.504;13.438;2023-03-14T08:58:47;14.60;55.40
71563;DHT22;59391;52.504;13.438;2023-03-14T09:01:13;14.60;55.20
71563;DHT22;59391;52.504;13.438;2023-03-14T09:03:38;14.60;55.50
71563;DHT22;59391;52.504;13.438;2023-03-14T09:06:06;14.60;55.80
71563;DHT22;59391;52.504;13.438;2023-03-14T09:08:34;14.70;54.80
71563;DHT22;59391;52.504;13.438;2023-03-14T09:11:00;14.70;54.90
71563;DHT22;59391;52.504;13.438;2023-03-14T09:13:26;14.70;55.00
71563;DHT22;59391;52.504;13.438;2023-03-14T09:15:53;14.70;54.80
71563;DHT22;59391;52.504;13.438;2023-03-14T09:18:20;14.70;54.50
71563;DHT22;59391;52.504;13.438;2023-03-14T09:20:46;14.80;55.10
71563;DHT22;59391;52.504;13.438;2023-03-14T09:23:12;14.80;54.60
71563;DHT22;59391;52.504;13.438;2023-03-14T09:25:38;15.00;54.40
71563;DHT22;59391;52.504;13.438;2023-03-14T09:28:04;15.10;54.10
71563;DHT22;59391;52.504;13.438;2023-03-14T09:30:30;15.30;52.90
71563;DHT22;59391;52.504;13.438;2023-03-14T09:32:55;15.50;53.20
71563;DHT22;59391;52.504;13.438;2023-03-14T09:35:22;15.80;52.60
71563;DHT22;59391;52.504;13.438;2023-03-14T09:37:48;16.10;51.40
71563;DHT22;59391;52.504;13.438;2023-03-14T09:40:16;16.30;50.10
71563;DHT22;59391;52.504;13.438;2023-03-14T09:42:43;16.50;49.90
71563;DHT22;59391;52.504;13.438;2023-03-14T09:45:13;16.60;49.40
71563;DHT22;59391;52.504;13.438;2023-03-14T09:47:47;16.80;49.20
71563;DHT22;59391;52.504;13.438;2023-03-14T09:50:16;16.90;48.20
71563;DHT22;59391;52.504;13.438;2023-03-14T09:53:12;16.90;48.30
71563;DHT22;59391;52.504;13.438;2023-03-14T09:55:42;16.70;48.30
71563;DHT22;59391;52.504;13.438;2023-03-14T09:58:13;16.60;48.70
71563;DHT22;59391;52.504;13.438;2023-03-14T10:00:42;16.50;48.90
71563;DHT22;59391;52.504;13.438;2023-03-14T10:03:19;16.40;48.80
71563;DHT22;59391;52.504;13.438;2023-03-14T10:05:49;16.30;49.00
71563;DHT22;59391;52.504;13.438;2023-03-14T10:08:15;16.10;49.30
71563;DHT22;59391;52.504;13.438;2023-03-14T10:10:41;16.00;49.40
71563;DHT22;59391;52.504;13.438;2023-03-14T10:15:35;15.80;50.10
71563;DHT22;59391;52.504;13.438;2023-03-14T10:18:04;15.80;50.50
71563;DHT22;59391;52.504;13.438;2023-03-14T10:20:43;15.80;49.30
71563;DHT22;59391;52.504;13.438;2023-03-14T10:25:41;15.70;49.30
71563;DHT22;59391;52.504;13.438;2023-03-14T10:28:24;15.70;49.60
71563;DHT22;59391;52.504;13.438;2023-03-14T10:30:52;15.70;49.10
71563;DHT22;59391;52.504;13.438;2023-03-14T10:35:44;15.70;48.90
71563;DHT22;59391;52.504;13.438;2023-03-14T10:38:16;15.60;49.50
71563;DHT22;59391;52.504;13.438;2023-03-14T10:40:47;15.60;49.20
71563;DHT22;59391;52.504;13.438;2023-03-14T10:43:19;15.60;48.90
71563;DHT22;59391;52.504;13.438;2023-03-14T10:45:58;15.50;49.10
71563;DHT22;59391;52.504;13.438;2023-03-14T10:48:36;15.60;48.80
71563;DHT22;59391;52.504;13.438;2023-03-14T10:51:10;15.50;49.00
71563;DHT22;59391;52.504;13.438;2023-03-14T10:53:55;15.50;48.50
71563;DHT22;59391;52.504;13.438;2023-03-14T10:56:24;15.50;48.90
71563;DHT22;59391;52.504;13.438;2023-03-14T10:58:54;15.60;49.30
71563;DHT22;59391;52.504;13.438;2023-03-14T11:01:55;15.60;48.60
71563;DHT22;59391;52.504;13.438;2023-03-14T11:07:49;15.60;49.10
71563;DHT22;59391;52.504;13.438;2023-03-14T11:10:33;15.60;49.00
71563;DHT22;59391;52.504;13.438;2023-03-14T11:13:03;15.50;49.20
71563;DHT22;59391;52.504;13.438;2023-03-14T11:16:01;15.50;49.20
71563;DHT22;59391;52.504;13.438;2023-03-14T11:18:48;15.50;49.50
71563;DHT22;59391;52.504;13.438;2023-03-14T11:21:33;15.50;49.30
71563;DHT22;59391;52.504;13.438;2023-03-14T11:24:18;15.60;49.60
71563;DHT22;59391;52.504;13.438;2023-03-14T11:26:59;15.60;49.40
71563;DHT22;59391;52.504;13.438;2023-03-14T11:29:54;15.60;49.50
71563;DHT22;59391;52.504;13.438;2023-03-14T11:32:59;15.60;49.40
71563;DHT22;59391;52.504;13.438;2023-03-14T11:41:04;15.60;50.00
71563;DHT22;59391;52.504;13.438;2023-03-14T11:43:41;15.60;49.90
71563;DHT22;59391;52.504;13.438;2023-03-14T11:46:17;15.60;50.10
71563;DHT22;59391;52.504;13.438;2023-03-14T11:49:13;15.50;50.90
71563;DHT22;59391;52.504;13.438;2023-03-14T11:51:43;15.50;51.20
71563;DHT22;59391;52.504;13.438;2023-03-14T11:54:45;15.50;52.60
71563;DHT22;59391;52.504;13.438;2023-03-14T11:57:21;15.40;52.50
71563;DHT22;59391;52.504;13.438;2023-03-14T12:00:17;15.40;52.80
71563;DHT22;59391;52.504;13.438;2023-03-14T12:05:53;15.30;52.50
71563;DHT22;59391;52.504;13.438;2023-03-14T12:08:49;15.30;52.80
71563;DHT22;59391;52.504;13.438;2023-03-14T12:11:40;15.20;53.10
71563;DHT22;59391;52.504;13.438;2023-03-14T12:14:28;15.20;53.10
71563;DHT22;59391;52.504;13.438;2023-03-14T12:17:06;15.20;53.10
71563;DHT22;59391;52.504;13.438;2023-03-14T12:19:44;15.20;53.60
71563;DHT22;59391;52.504;13.438;2023-03-14T12:22:17;15.20;53.70
71563;DHT22;59391;52.504;13.438;2023-03-14T12:24:54;15.20;53.70
71563;DHT22;59391;52.504;13.438;2023-03-14T12:35:39;15.30;53.50
71563;DHT22;59391;52.504;13.438;2023-03-14T12:43:48;15.50;55.40
71563;DHT22;59391;52.504;13.438;2023-03-14T12:49:07;15.60;57.00
71563;DHT22;59391;52.504;13.438;2023-03-14T12:51:38;15.60;55.30
71563;DHT22;59391;52.504;13.438;2023-03-14T12:54:23;15.60;56.10
71563;DHT22;59391;52.504;13.438;2023-03-14T12:59:56;15.60;55.80
71563;DHT22;59391;52.504;13.438;2023-03-14T13:02:25;15.60;56.10
71563;DHT22;59391;52.504;13.438;2023-03-14T13:05:03;15.70;55.20
71563;DHT22;59391;52.504;13.438;2023-03-14T13:08:01;15.70;55.00
71563;DHT22;59391;52.504;13.438;2023-03-14T13:10:29;15.70;56.70
71563;DHT22;59391;52.504;13.438;2023-03-14T13:13:23;15.70;59.40
71563;DHT22;59391;52.504;13.438;2023-03-14T13:15:56;15.60;59.20
71563;DHT22;59391;52.504;13.438;2023-03-14T13:18:36;15.40;61.50
71563;DHT22;59391;52.504;13.438;2023-03-14T13:21:17;15.20;63.20
71563;DHT22;59391;52.504;13.438;2023-03-14T13:27:17;14.60;65.50
71563;DHT22;59391;52.504;13.438;2023-03-14T13:29:48;14.20;67.30
71563;DHT22;59391;52.504;13.438;2023-03-14T13:32:27;13.90;68.40
71563;DHT22;59391;52.504;13.438;2023-03-14T13:34:59;13.70;70.10
71563;DHT22;59391;52.504;13.438;2023-03-14T13:37:26;13.60;71.50
71563;DHT22;59391;52.504;13.438;2023-03-14T13:39:54;13.60;72.30
71563;DHT22;59391;52.504;13.438;2023-03-14T13:42:26;13.70;72.80
71563;DHT22;59391;52.504;13.438;2023-03-14T13:44:55;14.00;75.80
71563;DHT22;59391;52.504;13.438;2023-03-14T13:47:23;14.40;76.40
71563;DHT22;59391;52.504;13.438;2023-03-14T13:49:51;14.90;74.80
71563;DHT22;59391;52.504;13.438;2023-03-14T13:52:32;15.40;68.70
71563;DHT22;59391;52.504;13.438;2023-03-14T13:55:03;15.90;69.60
71563;DHT22;59391;52.504;13.438;2023-03-14T13:57:51;16.30;67.10
71563;DHT22;59391;52.504;13.438;2023-03-14T14:00:25;16.60;62.10
71563;DHT22;59391;52.504;13.438;2023-03-14T14:02:54;16.90;57.50
71563;DHT22;59391;52.504;13.438;2023-03-14T14:05:21;17.00;56.20
71563;DHT22;59391;52.504;13.438;2023-03-14T14:07:48;17.10;57.60
71563;DHT22;59391;52.504;13.438;2023-03-14T14:10:16;17.20;58.20
71563;DHT22;59391;52.504;13.438;2023-03-14T14:12:54;17.30;57.60
71563;DHT22;59391;52.504;13.438;2023-03-14T14:15:30;17.40;56.00
71563;DHT22;59391;52.504;13.438;2023-03-14T14:18:08;17.60;56.50
71563;DHT22;59391;52.504;13.438;2023-03-14T14:20:40;17.80;53.10
71563;DHT22;59391;52.504;13.438;2023-03-14T14:23:30;17.90;55.60
71563;DHT22;59391;52.504;13.438;2023-03-14T14:25:57;18.10;54.30
71563;DHT22;59391;52.504;13.438;2023-03-14T14:28:31;18.40;53.90
71563;DHT22;59391;52.504;13.438;2023-03-14T14:31:20;18.60;53.70
71563;DHT22;59391;52.504;13.438;2023-03-14T14:33:55;18.70;49.60
71563;DHT22;59391;52.504;13.438;2023-03-14T14:36:38;18.70;48.50
71563;DHT22;59391;52.504;13.438;2023-03-14T14:39:21;18.50;49.60
71563;DHT22;59391;52.504;13.438;2023-03-14T14:41:50;18.20;50.40
71563;DHT22;59391;52.504;13.438;2023-03-14T14:44:27;18.00;50.50
71563;DHT22;59391;52.504;13.438;2023-03-14T14:46:58;17.70;50.60
71563;DHT22;59391;52.504;13.438;2023-03-14T14:49:29;17.50;50.90
71563;DHT22;59391;52.504;13.438;2023-03-14T14:52:03;17.30;50.20
71563;DHT22;59391;52.504;13.438;2023-03-14T14:57:20;16.80;50.80
71563;DHT22;59391;52.504;13.438;2023-03-14T14:59:50;16.60;50.80
71563;DHT22;59391;52.504;13.438;2023-03-14T15:05:18;16.40;51.90
71563;DHT22;59391;52.504;13.438;2023-03-14T15:07:47;16.30;52.10
71563;DHT22;59391;52.504;13.438;2023-03-14T15:10:16;16.20;52.80
71563;DHT22;59391;52.504;13.438;2023-03-14T15:12:46;16.20;53.00
71563;DHT22;59391;52.504;13.438;2023-03-14T15:15:13;16.10;52.90
71563;DHT22;59391;52.504;13.438;2023-03-14T15:17:40;16.00;53.20
71563;DHT22;59391;52.504;13.438;2023-03-14T15:20:09;16.00;53.50
71563;DHT22;59391;52.504;13.438;2023-03-14T15:22:39;15.90;54.20
71563;DHT22;59391;52.504;13.438;2023-03-14T15:25:05;15.80;57.60
71563;DHT22;59391;52.504;13.438;2023-03-14T15:27:32;15.20;55.10
71563;DHT22;59391;52.504;13.438;2023-03-14T15:29:58;14.40;54.70
71563;DHT22;59391;52.504;13.438;2023-03-14T15:32:24;13.60;56.90
71563;DHT22;59391;52.504;13.438;2023-03-14T15:34:55;12.70;57.60
71563;DHT22;59391;52.504;13.438;2023-03-14T15:37:22;12.00;59.60
71563;DHT22;59391;52.504;13.438;2023-03-14T15:39:48;11.40;61.60
71563;DHT22;59391;52.504;13.438;2023-03-14T15:42:14;11.00;63.00
71563;DHT22;59391;52.504;13.438;2023-03-14T15:44:39;10.60;64.40
71563;DHT22;59391;52.504;13.438;2023-03-14T15:47:05;10.20;65.80
71563;DHT22;59391;52.504;13.438;2023-03-14T15:49:32;9.90;66.10
71563;DHT22;59391;52.504;13.438;2023-03-14T15:51:58;9.50;66.10
71563;DHT22;59391;52.504;13.438;2023-03-14T15:54:24;9.30;66.90
71563;DHT22;59391;52.504;13.438;2023-03-14T15:56:56;9.00;67.70
71563;DHT22;59391;52.504;13.438;2023-03-14T15:59:23;8.90;68.40
71563;DHT22;59391;52.504;13.438;2023-03-14T16:01:49;8.70;68.30
71563;DHT22;59391;52.504;13.438;2023-03-14T16:04:15;8.50;66.40
71563;DHT22;59391;52.504;13.438;2023-03-14T16:06:41;8.40;65.20
71563;DHT22;59391;52.504;13.438;2023-03-14T16:09:09;8.10;62.80
71563;DHT22;59391;52.504;13.438;2023-03-14T16:11:34;7.70;62.40
71563;DHT22;59391;52.504;13.438;2023-03-14T16:14:00;7.50;63.30
71563;DHT22;59391;52.504;13.438;2023-03-14T16:16:26;7.20;64.30
71563;DHT22;59391;52.504;13.438;2023-03-14T16:18:51;6.90;64.60
71563;DHT22;59391;52.504;13.438;2023-03-14T16:21:18;6.60;65.40
71563;DHT22;59391;52.504;13.438;2023-03-14T16:23:45;6.40;66.00
71563;DHT22;59391;52.504;13.438;2023-03-14T16:26:14;6.10;66.80
71563;DHT22;59391;52.504;13.438;2023-03-14T16:28:42;5.90;67.70